Time;durP1;ratioP1;P1;durP2;ratioP2;P2;SDS_P1;SDS_P2;PMS_P1;PMS_P2;Temp;Humidity;BMP_temperature;BMP_pressure;BME280_temperature;BME280_humidity;BME280_pressure;Samples;Min_cycle;Max_cycle;Signal;HPM_P1;HPM_P2
2021/07/02 00:04:25;;;;;;;14.88;6.55;;;;;;;14.57;83.17;100566.16;20658767;28;20096;-70
2021/07/02 00:14:26;;;;;;;11.80;6.55;;;;;;;14.44;83.75;100560.34;20658458;28;20050;-70
2021/07/02 00:24:28;;;;;;;10.70;6.15;;;;;;;14.33;84.12;100552.78;20658285;28;20080;-70
2021/07/02 00:34:30;;;;;;;14.57;6.78;;;;;;;14.41;83.84;100556.94;20656720;28;20563;-69
2021/07/02 00:44:47;;;;;;;11.52;6.25;;;;;;;14.46;83.30;100547.13;20657684;28;20050;-70
2021/07/02 00:54:50;;;;;;;13.05;6.85;;;;;;;14.50;83.46;100539.13;20657798;28;20805;-70
2021/07/02 01:04:51;;;;;;;14.90;7.00;;;;;;;14.44;83.32;100534.00;20655588;28;20047;-70
2021/07/02 01:14:53;;;;;;;13.68;7.07;;;;;;;14.50;83.13;100539.13;20656034;28;20420;-69
2021/07/02 01:24:56;;;;;;;10.98;6.60;;;;;;;14.46;82.81;100533.94;20655688;28;20054;-71
2021/07/02 01:34:58;;;;;;;12.95;6.68;;;;;;;14.37;83.40;100537.72;20655531;28;20076;-70
2021/07/02 01:45:00;;;;;;;12.23;6.40;;;;;;;14.28;83.95;100538.88;20660704;28;20054;-70
2021/07/02 01:55:03;;;;;;;12.10;6.57;;;;;;;14.31;84.21;100530.84;20669692;28;20105;-70
2021/07/02 02:05:06;;;;;;;14.73;6.82;;;;;;;14.40;83.88;100526.25;20668997;28;20050;-70
2021/07/02 02:15:08;;;;;;;12.23;6.80;;;;;;;14.23;83.74;100529.34;20668684;28;20050;-70
2021/07/02 02:25:10;;;;;;;16.73;7.65;;;;;;;14.09;84.28;100522.72;20667115;28;20047;-70
2021/07/02 02:35:12;;;;;;;13.57;7.82;;;;;;;13.99;84.86;100520.38;20666593;28;20058;-70
2021/07/02 02:45:14;;;;;;;14.15;7.63;;;;;;;14.00;85.28;100528.25;20666219;28;20047;-70
2021/07/02 02:55:16;;;;;;;12.95;7.57;;;;;;;13.98;85.02;100523.91;20665104;28;20468;-70
2021/07/02 03:05:17;;;;;;;15.65;8.27;;;;;;;13.95;85.26;100516.97;20664364;28;20081;-70
2021/07/02 03:15:19;;;;;;;16.15;8.23;;;;;;;13.92;84.90;100535.47;20664385;28;20554;-70
2021/07/02 03:25:21;;;;;;;15.23;7.85;;;;;;;14.01;84.73;100539.63;20681867;28;20101;-70
2021/07/02 03:35:23;;;;;;;17.48;8.10;;;;;;;14.04;84.42;100550.09;20683637;28;20398;-70
2021/07/02 03:45:25;;;;;;;11.73;7.65;;;;;;;13.95;84.44;100564.38;20661463;28;20097;-70
2021/07/02 03:55:26;;;;;;;16.25;7.85;;;;;;;13.95;84.34;100558.25;20660532;28;20137;-70
2021/07/02 04:05:32;;;;;;;14.77;8.20;;;;;;;13.91;83.92;100565.34;20659587;28;20054;-69
2021/07/02 04:15:34;;;;;;;15.57;8.20;;;;;;;14.03;83.37;100564.13;20659575;28;20046;-70
2021/07/02 04:25:36;;;;;;;14.00;8.13;;;;;;;14.17;81.91;100569.03;20658375;28;20104;-70
2021/07/02 04:35:37;;;;;;;14.95;8.85;;;;;;;14.61;80.63;100583.59;20657713;28;20046;-70
2021/07/02 04:45:39;;;;;;;17.10;8.10;;;;;;;15.44;76.54;100576.63;20656465;28;20054;-70
2021/07/02 04:55:41;;;;;;;15.38;8.25;;;;;;;15.02;77.31;100578.84;20657378;28;20101;-70
2021/07/02 05:05:43;;;;;;;15.15;8.23;;;;;;;14.58;79.59;100600.38;20638342;28;20413;-69
2021/07/02 05:15:47;;;;;;;15.05;8.15;;;;;;;14.53;79.62;100601.41;20655667;28;20097;-69
2021/07/02 05:25:50;;;;;;;14.43;7.97;;;;;;;14.72;78.50;100605.25;20671444;28;20133;-69
2021/07/02 05:35:52;;;;;;;11.52;7.20;;;;;;;15.28;77.05;100599.13;20670716;28;20050;-69
2021/07/02 05:45:53;;;;;;;11.23;6.63;;;;;;;15.75;74.73;100602.00;20669633;28;20545;-68
2021/07/02 05:55:55;;;;;;;13.65;7.07;;;;;;;16.00;73.98;100616.13;20669726;28;20057;-68
2021/07/02 06:05:57;;;;;;;12.02;6.32;;;;;;;16.31;73.16;100613.25;20669267;28;20054;-68
2021/07/02 06:15:59;;;;;;;13.50;7.30;;;;;;;16.22;73.55;100620.66;20667805;28;20508;-68
2021/07/02 06:26:02;;;;;;;16.35;6.80;;;;;;;16.22;74.05;100632.06;20667679;28;20046;-68
2021/07/02 06:36:04;;;;;;;11.05;6.97;;;;;;;16.42;73.26;100626.06;20665328;28;20046;-70
2021/07/02 06:46:06;;;;;;;11.82;6.38;;;;;;;16.99;71.63;100623.97;20666504;28;20125;-68
2021/07/02 06:56:09;;;;;;;9.57;5.53;;;;;;;17.50;70.31;100634.31;20665623;28;20058;-68
2021/07/02 07:06:10;;;;;;;10.70;6.25;;;;;;;17.64;68.42;100636.38;20658463;28;20051;-70
2021/07/02 07:16:12;;;;;;;14.45;6.82;;;;;;;17.78;65.04;100643.81;20655615;28;20500;-70
2021/07/02 07:26:14;;;;;;;12.57;6.50;;;;;;;18.00;63.25;100641.94;20664085;28;20101;-68
2021/07/02 07:36:16;;;;;;;11.50;6.72;;;;;;;18.03;62.22;100649.78;20663001;28;20051;-68
2021/07/02 07:46:18;;;;;;;12.25;6.30;;;;;;;18.42;58.66;100656.94;20661445;28;20038;-70
2021/07/02 07:56:20;;;;;;;11.70;6.50;;;;;;;18.57;57.03;100655.38;20661413;28;20054;-70
2021/07/02 08:06:21;;;;;;;11.32;6.13;;;;;;;19.20;53.09;100650.72;20659751;28;20054;-70
2021/07/02 08:16:25;;;;;;;10.93;5.70;;;;;;;19.03;53.10;100651.53;20669243;28;20070;-70
2021/07/02 08:26:27;;;;;;;10.73;6.20;;;;;;;19.06;52.67;100647.84;20688134;28;20074;-70
2021/07/02 08:36:28;;;;;;;9.52;5.07;;;;;;;19.35;47.31;100668.56;20658271;28;20046;-70
2021/07/02 08:46:33;;;;;;;10.10;5.18;;;;;;;19.56;45.14;100657.88;20658158;28;20062;-69
2021/07/02 08:56:58;;;;;;;9.60;5.03;;;;;;;20.01;43.83;100649.44;20562782;28;20134;-70
2021/07/02 09:07:08;;;;;;;8.98;4.93;;;;;;;20.03;44.75;100650.22;20575989;28;20564;-70
2021/07/02 09:17:11;;;;;;;8.95;5.10;;;;;;;20.22;44.59;100658.97;20625597;28;20051;-70
2021/07/02 09:27:31;;;;;;;8.52;5.15;;;;;;;20.50;44.80;100652.22;20657105;28;20200;-70
2021/07/02 09:37:42;;;;;;;10.35;5.63;;;;;;;20.95;44.65;100654.22;20654580;28;20042;-70
2021/07/02 09:47:46;;;;;;;10.15;6.03;;;;;;;21.35;43.04;100661.84;20655212;28;20050;-70
2021/07/02 09:57:47;;;;;;;8.68;5.43;;;;;;;21.54;43.37;100666.97;20656977;28;20069;-68
2021/07/02 10:07:55;;;;;;;11.98;5.30;;;;;;;21.59;42.70;100657.78;20662270;28;20053;-68
2021/07/02 10:17:57;;;;;;;8.90;5.53;;;;;;;22.93;42.57;100656.00;20666494;28;20101;-69
2021/07/02 10:28:00;;;;;;;10.73;5.70;;;;;;;22.40;43.09;100660.16;20668013;28;20094;-70
2021/07/02 10:38:03;;;;;;;9.38;5.30;;;;;;;21.75;46.17;100655.06;20666325;28;20053;-69
2021/07/02 10:48:05;;;;;;;10.13;6.00;;;;;;;21.92;45.34;100668.28;20666905;28;20481;-71
2021/07/02 10:58:07;;;;;;;9.10;5.63;;;;;;;22.43;46.08;100662.66;20666230;28;20053;-71
2021/07/02 11:08:09;;;;;;;9.52;5.82;;;;;;;23.60;44.22;100645.44;20665719;28;20461;-69
2021/07/02 11:18:13;;;;;;;8.48;5.45;;;;;;;23.22;44.30;100646.97;20664861;28;20046;-69
2021/07/02 11:28:28;;;;;;;8.00;5.50;;;;;;;22.77;45.10;100651.59;20664659;28;20398;-69
2021/07/02 11:38:30;;;;;;;;;;;;;;;22.75;46.83;100650.81;20662152;28;20085;-69
2021/07/02 11:48:37;;;;;;;12.68;6.10;;;;;;;22.53;44.06;100648.63;20662171;28;20367;-68
2021/07/02 11:58:50;;;;;;;8.60;5.80;;;;;;;23.10;43.80;100641.59;20661357;28;20120;-68
2021/07/02 12:09:02;;;;;;;7.67;5.93;;;;;;;22.78;44.04;100637.28;20660003;28;20124;-68
2021/07/02 12:19:07;;;;;;;8.32;5.38;;;;;;;23.78;42.78;100618.38;20659419;28;20149;-68
2021/07/02 12:29:12;;;;;;;9.90;5.38;;;;;;;23.48;42.47;100620.41;20658306;28;20433;-69
2021/07/02 12:39:14;;;;;;;7.20;4.93;;;;;;;23.73;43.75;100609.81;20658862;28;20753;-69
2021/07/02 12:49:27;;;;;;;10.20;5.70;;;;;;;23.41;43.86;100603.88;20658049;28;20055;-69
2021/07/02 12:59:28;;;;;;;8.95;6.30;;;;;;;23.09;45.16;100600.63;20658205;28;20427;-69
2021/07/02 13:09:29;;;;;;;8.38;5.53;;;;;;;23.44;44.28;100589.47;20664181;28;20051;-70
2021/07/02 13:19:31;;;;;;;9.07;5.85;;;;;;;23.23;43.73;100589.91;20676460;28;20089;-69
2021/07/02 13:29:33;;;;;;;9.07;5.70;;;;;;;23.75;42.38;100590.97;20655791;28;20057;-70
2021/07/02 13:39:42;;;;;;;7.72;5.35;;;;;;;23.62;42.16;100576.69;20660001;28;20057;-70
2021/07/02 13:49:56;;;;;;;9.15;5.20;;;;;;;23.71;40.92;100581.44;20671806;28;20492;-69
2021/07/02 13:59:58;;;;;;;8.52;5.28;;;;;;;23.06;41.34;100579.50;20671618;28;20460;-69
2021/07/02 14:09:59;;;;;;;7.88;5.07;;;;;;;23.72;40.65;100594.72;20669553;28;20042;-70
2021/07/02 14:20:01;;;;;;;7.10;4.85;;;;;;;24.63;38.74;100589.34;20669749;28;20050;-70
2021/07/02 14:30:05;;;;;;;8.35;5.03;;;;;;;24.78;39.51;100590.91;20668493;28;20061;-70
2021/07/02 14:40:07;;;;;;;7.10;5.00;;;;;;;23.93;40.57;100588.88;20748408;28;20123;-68
2021/07/02 14:50:10;;;;;;;9.38;5.28;;;;;;;23.86;41.04;100587.56;20732468;28;20807;-69
2021/07/02 15:00:12;;;;;;;8.38;5.03;;;;;;;24.01;41.04;100575.84;20746636;28;20050;-69
2021/07/02 15:10:13;;;;;;;7.70;5.18;;;;;;;24.05;40.42;100570.19;20744109;28;20100;-69
2021/07/02 15:20:20;;;;;;;8.93;5.20;;;;;;;23.88;42.04;100566.94;20702380;28;20076;-69
2021/07/02 15:30:59;;;;;;;8.15;5.43;;;;;;;24.60;39.21;100562.78;20743206;28;20463;-69
2021/07/02 15:41:02;;;;;;;7.32;4.82;;;;;;;24.80;39.98;100558.66;20741891;28;20484;-70
2021/07/02 15:51:04;;;;;;;9.00;4.80;;;;;;;23.95;41.50;100560.19;20726638;28;20097;-69
2021/07/02 16:01:06;;;;;;;10.93;5.43;;;;;;;24.18;40.80;100562.13;20734496;28;20488;-70
2021/07/02 16:11:07;;;;;;;9.10;5.50;;;;;;;24.40;41.34;100547.28;20736496;28;20048;-69
2021/07/02 16:21:09;;;;;;;8.40;5.68;;;;;;;24.49;41.41;100547.50;20702484;28;20464;-69
2021/07/02 16:31:11;;;;;;;8.50;5.60;;;;;;;24.67;40.42;100552.47;20738770;28;20564;-69
2021/07/02 16:41:14;;;;;;;7.50;5.00;;;;;;;25.22;41.59;100543.97;20740057;28;20050;-70
2021/07/02 16:51:16;;;;;;;8.00;5.72;;;;;;;25.05;40.61;100536.28;20725263;28;20054;-69
2021/07/02 17:01:18;;;;;;;7.55;5.40;;;;;;;25.21;39.65;100534.22;20738101;28;20053;-72
2021/07/02 17:11:20;;;;;;;8.35;5.20;;;;;;;25.07;40.90;100529.03;20733613;28;20045;-70
2021/07/02 17:21:21;;;;;;;9.48;5.70;;;;;;;24.89;40.68;100514.28;20712404;28;20104;-69
2021/07/02 17:31:24;;;;;;;8.35;5.40;;;;;;;24.62;42.11;100527.84;20735381;28;20051;-69
2021/07/02 17:41:29;;;;;;;8.23;5.57;;;;;;;24.54;42.17;100520.41;20603758;28;20042;-69
2021/07/02 17:51:31;;;;;;;8.52;6.28;;;;;;;24.55;42.71;100514.06;20612619;28;20145;-67
2021/07/02 18:01:37;;;;;;;7.88;5.15;;;;;;;24.45;44.27;100505.00;20594528;28;20051;-67
2021/07/02 18:11:39;;;;;;;9.43;5.35;;;;;;;23.86;46.43;100504.66;20588703;28;20118;-67
2021/07/02 18:21:42;;;;;;;10.05;7.00;;;;;;;23.47;47.16;100495.72;20587522;28;20051;-67
2021/07/02 18:31:44;;;;;;;8.68;5.85;;;;;;;23.19;48.10;100494.94;20576972;28;20103;-67
2021/07/02 18:41:46;;;;;;;9.10;6.00;;;;;;;22.75;49.29;100492.47;20506485;28;20552;-68
2021/07/02 18:51:48;;;;;;;9.50;6.30;;;;;;;22.16;51.37;100484.66;20505449;28;20052;-68
2021/07/02 19:01:50;;;;;;;8.68;6.28;;;;;;;21.76;53.09;100494.22;20510217;28;20047;-68
2021/07/02 19:11:51;;;;;;;9.45;6.30;;;;;;;21.47;56.17;100490.66;20504109;28;20055;-68
2021/07/02 19:21:53;;;;;;;11.95;5.88;;;;;;;21.07;57.68;100497.41;20551228;28;20042;-68
2021/07/02 19:31:55;;;;;;;11.02;6.65;;;;;;;20.74;59.59;100504.59;20587736;28;20043;-68
2021/07/02 19:41:57;;;;;;;10.30;6.57;;;;;;;20.45;60.89;100527.41;20582372;28;20051;-69
2021/07/02 19:51:59;;;;;;;10.55;6.65;;;;;;;20.20;61.22;100540.34;20580602;28;20137;-68
2021/07/02 20:02:02;;;;;;;9.63;6.90;;;;;;;19.98;62.05;100551.25;20585669;28;20469;-68
2021/07/02 20:12:04;;;;;;;11.18;7.28;;;;;;;19.81;62.49;100551.25;20579639;28;20049;-68
2021/07/02 20:22:06;;;;;;;10.27;6.05;;;;;;;19.42;64.39;100549.66;20579548;28;20051;-68
2021/07/02 20:32:08;;;;;;;10.13;7.43;;;;;;;19.07;65.26;100544.31;20567220;28;20513;-68
2021/07/02 20:42:10;;;;;;;11.02;6.95;;;;;;;18.82;65.31;100546.41;20498064;28;20074;-68
2021/07/02 20:52:12;;;;;;;13.27;7.65;;;;;;;18.63;67.12;100551.66;20497001;28;20398;-68
2021/07/02 21:02:13;;;;;;;9.95;7.22;;;;;;;18.28;68.60;100553.28;20501303;28;20122;-68
2021/07/02 21:12:17;;;;;;;11.73;7.75;;;;;;;18.03;70.26;100550.88;20496484;28;20051;-68
2021/07/02 21:22:19;;;;;;;13.63;8.50;;;;;;;17.88;70.50;100563.00;20547089;28;20070;-67
2021/07/02 21:32:21;;;;;;;12.50;8.55;;;;;;;17.51;71.39;100563.69;20581578;28;20039;-68
2021/07/02 21:42:24;;;;;;;14.07;8.43;;;;;;;17.33;71.48;100554.72;20576230;28;20054;-68
2021/07/02 21:52:26;;;;;;;12.98;8.50;;;;;;;17.54;70.50;100545.88;20575511;28;20382;-67
2021/07/02 22:02:27;;;;;;;13.85;9.32;;;;;;;17.38;71.84;100552.72;20595325;28;20354;-67
2021/07/02 22:12:29;;;;;;;23.30;17.02;;;;;;;17.25;72.52;100562.09;20599976;28;20580;-68
2021/07/02 22:22:31;;;;;;;13.52;10.35;;;;;;;17.01;73.67;100564.81;20585525;28;20394;-68
2021/07/02 22:32:34;;;;;;;12.32;8.70;;;;;;;16.77;74.40;100558.72;20592384;28;20457;-68
2021/07/02 22:42:37;;;;;;;14.32;9.77;;;;;;;16.71;76.00;100543.03;20585674;28;20528;-68
2021/07/02 22:52:40;;;;;;;15.48;9.98;;;;;;;16.66;74.75;100529.97;20585088;28;20051;-68
2021/07/02 23:02:42;;;;;;;16.73;9.73;;;;;;;16.34;76.88;100531.22;20590897;28;20708;-68
2021/07/02 23:12:44;;;;;;;13.68;9.63;;;;;;;16.36;77.06;100525.88;20584203;28;20051;-68
2021/07/02 23:22:46;;;;;;;14.57;10.48;;;;;;;16.28;76.83;100527.94;20583682;28;20043;-68
2021/07/02 23:32:48;;;;;;;17.02;11.00;;;;;;;16.17;78.08;100525.69;20573023;28;20047;-69
2021/07/02 23:42:51;;;;;;;18.15;9.50;;;;;;;16.07;77.80;100524.31;20581835;28;20117;-69
2021/07/02 23:52:52;;;;;;;14.00;9.95;;;;;;;15.96;78.19;100522.06;20581390;28;20086;-69
